Terminal Aerodrome Forecast
Issued by NWS

Home | Current Version | Previous Version | Text Only | Print | Product List | Glossary On
Versions: 1 2 3 4 5 6 7 8 9 10 11 12
000
FTUS41 KBTV 011732
TAFSLK
TAF
KSLK 011732Z 0118/0218 15007KT 6SM -RA BR BKN035 OVC045
     FM020300 VRB03KT 3SM -SHRA BR BKN020 OVC025
     FM020900 00000KT P6SM VCSH BKN015 OVC020
     FM021000 00000KT 3SM -SHRA BR OVC015=

USA.gov is the U.S. government's official web portal to all federal, state and local government web resources and services.